Aérodrome :
LOGIN :

S'inscrire | Disclaimer

   EN    FR    IT 

 










Légende :    VFR   VFR Marginal   IFR   IFR Intensif   IFR Très Intensif
Visi : 
Plafond : 
>= 8 km
>= 3000ft
5 à 8 km
1000 à 3000 ft
1500m à 5 km
500 à 1000 ft
800 à 1500m
200 à 500 ft
< 800m
< 200 ft
Symboles :   Orages  Brouillard  Fortes neiges  Fortes précipitations  Vent > 20 kt
SIGMETs :   Divers  Orages  Givrage  Turbulence  Onde Orograph.  Cendres Volcan.







- Altitude de l'aérodrome : 287 ft
- Voir les cartes d'approche


LFRL - Lanveoc Poulmic

DERNIER METAR :
  • 162300Z AUTO 22015KT 190V250 0900 R23/1000U R05/1100U RA FG VV/// ///TCU 18/18 Q1015

METARs EXPIRÉS :
  • 162230Z AUTO 21012KT 1000 0800 R23/1300D R05/P2000 BCFG VV/// 18/17 Q1015
  • 162200Z AUTO 20013KT 1500 1100 R23/1400D R05/1900D -RA BR VV/// ///TCU 18/17 Q1015
  • 162130Z AUTO 19013KT 0650 0500 R23/0600U R05/0800U FG VV/// ///CB 17/17 Q1015
  • 162100Z AUTO 19013KT 0900 0750 R23/0900D R05/1000D -RA FG VV/// 17/17 Q1016
  • 162030Z AUTO 19014KT 0600 0500 R23/0650U R05/0800U FG VV/// 17/17 Q1016

TAF TAF LFRL
Valide du 16 à 15h jusqu'au 17 à 00h UTC


161400Z 1615/1624 20014KT 9999 SCT017
BECMG 1616/1618 BKN014
BECMG 1618/1620 4000 RA BKN007
BECMG 1620/1622 2000 RADZ OVC002
Pas de NOTAMs connus pour ce terrain.



MET'MAP, la Météo Aéronautique d'un coup d'oeil ! - Copyright ORBIFLY Décembre 2007 - Disclaimer

ORBIFLY MET'MAP TEAM :

Programmation & Développement : Alexandra Zaïnal
Conception & Développement : Baudouin d'Aumeries
Co-Programmation & Développement : Marc-Olivier Méhu
Soutien technique & logistique : Manuel Goepfert

Contact : metmap@orbifly.com




SOURCES & CREDITS :

   NOAA